sensor_id;sensor_type;location;lat;lon;timestamp;temperature;humidity
10431;DHT22;5262;59.958;17.726;2023-03-14T00:01:31;4.40;99.90
10431;DHT22;5262;59.958;17.726;2023-03-14T00:03:56;4.40;99.90
10431;DHT22;5262;59.958;17.726;2023-03-14T00:06:22;4.30;99.90
10431;DHT22;5262;59.958;17.726;2023-03-14T00:08:48;4.30;99.90
10431;DHT22;5262;59.958;17.726;2023-03-14T00:11:17;4.60;99.90
10431;DHT22;5262;59.958;17.726;2023-03-14T00:13:43;4.50;99.90
10431;DHT22;5262;59.958;17.726;2023-03-14T00:16:11;4.40;99.90
10431;DHT22;5262;59.958;17.726;2023-03-14T00:18:38;4.50;99.90
10431;DHT22;5262;59.958;17.726;2023-03-14T00:21:05;4.40;99.90
10431;DHT22;5262;59.958;17.726;2023-03-14T00:23:33;4.40;99.90
10431;DHT22;5262;59.958;17.726;2023-03-14T00:26:04;4.40;99.90
10431;DHT22;5262;59.958;17.726;2023-03-14T00:28:30;4.40;99.90
10431;DHT22;5262;59.958;17.726;2023-03-14T00:30:56;4.50;99.90
10431;DHT22;5262;59.958;17.726;2023-03-14T00:33:22;4.30;99.90
10431;DHT22;5262;59.958;17.726;2023-03-14T00:35:55;4.50;99.90
10431;DHT22;5262;59.958;17.726;2023-03-14T00:38:21;4.50;99.90
10431;DHT22;5262;59.958;17.726;2023-03-14T00:40:46;4.50;99.90
10431;DHT22;5262;59.958;17.726;2023-03-14T00:43:12;4.40;99.90
10431;DHT22;5262;59.958;17.726;2023-03-14T00:45:37;4.40;99.90
10431;DHT22;5262;59.958;17.726;2023-03-14T00:48:03;4.50;99.90
10431;DHT22;5262;59.958;17.726;2023-03-14T00:50:29;4.50;99.90
10431;DHT22;5262;59.958;17.726;2023-03-14T00:52:54;4.40;99.90
10431;DHT22;5262;59.958;17.726;2023-03-14T00:55:20;4.30;99.90
10431;DHT22;5262;59.958;17.726;2023-03-14T00:57:46;4.40;99.90
10431;DHT22;5262;59.958;17.726;2023-03-14T01:00:12;4.50;99.90
10431;DHT22;5262;59.958;17.726;2023-03-14T01:02:38;4.50;99.90
10431;DHT22;5262;59.958;17.726;2023-03-14T01:05:04;4.50;99.90
10431;DHT22;5262;59.958;17.726;2023-03-14T01:07:30;4.50;99.90
10431;DHT22;5262;59.958;17.726;2023-03-14T01:09:55;4.50;99.90
10431;DHT22;5262;59.958;17.726;2023-03-14T01:12:21;4.50;99.90
10431;DHT22;5262;59.958;17.726;2023-03-14T01:14:46;4.50;99.90
10431;DHT22;5262;59.958;17.726;2023-03-14T01:17:12;4.50;99.90
10431;DHT22;5262;59.958;17.726;2023-03-14T01:19:38;4.60;99.90
10431;DHT22;5262;59.958;17.726;2023-03-14T01:22:03;4.50;99.90
10431;DHT22;5262;59.958;17.726;2023-03-14T01:24:29;4.60;99.90
10431;DHT22;5262;59.958;17.726;2023-03-14T01:26:55;4.70;99.90
10431;DHT22;5262;59.958;17.726;2023-03-14T01:29:20;4.70;99.90
10431;DHT22;5262;59.958;17.726;2023-03-14T01:31:46;4.60;99.90
10431;DHT22;5262;59.958;17.726;2023-03-14T01:34:11;4.70;99.90
10431;DHT22;5262;59.958;17.726;2023-03-14T01:36:37;4.70;99.90
10431;DHT22;5262;59.958;17.726;2023-03-14T01:39:03;4.70;99.90
10431;DHT22;5262;59.958;17.726;2023-03-14T01:41:31;4.70;99.90
10431;DHT22;5262;59.958;17.726;2023-03-14T01:43:57;4.70;99.90
10431;DHT22;5262;59.958;17.726;2023-03-14T01:46:42;4.70;99.90
10431;DHT22;5262;59.958;17.726;2023-03-14T01:49:30;4.70;99.90
10431;DHT22;5262;59.958;17.726;2023-03-14T01:52:13;4.80;99.90
10431;DHT22;5262;59.958;17.726;2023-03-14T01:54:42;4.70;99.90
10431;DHT22;5262;59.958;17.726;2023-03-14T01:57:17;4.70;99.90
10431;DHT22;5262;59.958;17.726;2023-03-14T01:59:58;4.80;99.90
10431;DHT22;5262;59.958;17.726;2023-03-14T02:02:26;4.90;99.90
10431;DHT22;5262;59.958;17.726;2023-03-14T02:04:54;4.80;99.90
10431;DHT22;5262;59.958;17.726;2023-03-14T02:07:22;4.80;99.90
10431;DHT22;5262;59.958;17.726;2023-03-14T02:09:50;4.80;99.90
10431;DHT22;5262;59.958;17.726;2023-03-14T02:12:17;4.80;99.90
10431;DHT22;5262;59.958;17.726;2023-03-14T02:14:43;4.80;99.90
10431;DHT22;5262;59.958;17.726;2023-03-14T02:17:14;4.90;99.90
10431;DHT22;5262;59.958;17.726;2023-03-14T02:19:57;4.80;99.90
10431;DHT22;5262;59.958;17.726;2023-03-14T02:22:26;4.90;99.90
10431;DHT22;5262;59.958;17.726;2023-03-14T02:25:17;4.90;99.90
10431;DHT22;5262;59.958;17.726;2023-03-14T02:27:47;4.80;99.90
10431;DHT22;5262;59.958;17.726;2023-03-14T02:30:21;4.90;99.90
10431;DHT22;5262;59.958;17.726;2023-03-14T02:32:51;4.90;99.90
10431;DHT22;5262;59.958;17.726;2023-03-14T02:35:23;4.90;99.90
10431;DHT22;5262;59.958;17.726;2023-03-14T02:37:57;4.70;99.90
10431;DHT22;5262;59.958;17.726;2023-03-14T02:40:24;4.80;99.90
10431;DHT22;5262;59.958;17.726;2023-03-14T02:42:50;4.90;99.90
10431;DHT22;5262;59.958;17.726;2023-03-14T02:47:45;4.80;99.90
10431;DHT22;5262;59.958;17.726;2023-03-14T02:50:15;4.80;99.90
10431;DHT22;5262;59.958;17.726;2023-03-14T02:52:43;4.80;99.90
10431;DHT22;5262;59.958;17.726;2023-03-14T02:55:09;4.80;99.90
10431;DHT22;5262;59.958;17.726;2023-03-14T02:57:35;4.80;99.90
10431;DHT22;5262;59.958;17.726;2023-03-14T03:00:02;4.70;99.90
10431;DHT22;5262;59.958;17.726;2023-03-14T03:02:30;4.80;99.90
10431;DHT22;5262;59.958;17.726;2023-03-14T03:04:56;4.80;99.90
10431;DHT22;5262;59.958;17.726;2023-03-14T03:07:21;4.70;99.90
10431;DHT22;5262;59.958;17.726;2023-03-14T03:09:47;4.70;99.90
10431;DHT22;5262;59.958;17.726;2023-03-14T03:12:13;4.70;99.90
10431;DHT22;5262;59.958;17.726;2023-03-14T03:14:39;4.70;99.90
10431;DHT22;5262;59.958;17.726;2023-03-14T03:17:05;4.60;99.90
10431;DHT22;5262;59.958;17.726;2023-03-14T03:19:31;4.60;99.90
10431;DHT22;5262;59.958;17.726;2023-03-14T03:21:57;4.70;99.90
10431;DHT22;5262;59.958;17.726;2023-03-14T03:24:23;4.60;99.90
10431;DHT22;5262;59.958;17.726;2023-03-14T03:26:49;4.60;99.90
10431;DHT22;5262;59.958;17.726;2023-03-14T03:29:15;4.60;99.90
10431;DHT22;5262;59.958;17.726;2023-03-14T03:31:40;4.60;99.90
10431;DHT22;5262;59.958;17.726;2023-03-14T03:34:06;4.50;99.90
10431;DHT22;5262;59.958;17.726;2023-03-14T03:36:32;4.60;99.90
10431;DHT22;5262;59.958;17.726;2023-03-14T03:38:57;4.50;99.90
10431;DHT22;5262;59.958;17.726;2023-03-14T03:41:23;4.50;99.90
10431;DHT22;5262;59.958;17.726;2023-03-14T03:43:49;4.50;99.90
10431;DHT22;5262;59.958;17.726;2023-03-14T03:46:14;4.50;99.90
10431;DHT22;5262;59.958;17.726;2023-03-14T03:48:40;4.50;99.90
10431;DHT22;5262;59.958;17.726;2023-03-14T03:51:06;4.60;99.90
10431;DHT22;5262;59.958;17.726;2023-03-14T03:53:32;4.50;99.90
10431;DHT22;5262;59.958;17.726;2023-03-14T03:55:57;4.50;99.90
10431;DHT22;5262;59.958;17.726;2023-03-14T03:58:23;4.50;99.90
10431;DHT22;5262;59.958;17.726;2023-03-14T04:00:49;4.50;99.90
10431;DHT22;5262;59.958;17.726;2023-03-14T04:03:14;4.40;99.90
10431;DHT22;5262;59.958;17.726;2023-03-14T04:05:40;4.40;99.90
10431;DHT22;5262;59.958;17.726;2023-03-14T04:08:06;4.40;99.90
10431;DHT22;5262;59.958;17.726;2023-03-14T04:10:34;4.40;99.90
10431;DHT22;5262;59.958;17.726;2023-03-14T04:13:11;4.40;99.90
10431;DHT22;5262;59.958;17.726;2023-03-14T04:15:38;4.30;99.90
10431;DHT22;5262;59.958;17.726;2023-03-14T04:18:05;4.30;99.90
10431;DHT22;5262;59.958;17.726;2023-03-14T04:20:34;4.30;99.90
10431;DHT22;5262;59.958;17.726;2023-03-14T04:23:00;4.30;99.90
10431;DHT22;5262;59.958;17.726;2023-03-14T04:25:25;4.20;99.90
10431;DHT22;5262;59.958;17.726;2023-03-14T04:27:51;4.30;99.90
10431;DHT22;5262;59.958;17.726;2023-03-14T04:30:16;4.20;99.90
10431;DHT22;5262;59.958;17.726;2023-03-14T04:32:42;4.20;99.90
10431;DHT22;5262;59.958;17.726;2023-03-14T04:35:08;4.30;99.90
10431;DHT22;5262;59.958;17.726;2023-03-14T04:37:33;4.30;99.90
10431;DHT22;5262;59.958;17.726;2023-03-14T04:39:59;4.30;99.90
10431;DHT22;5262;59.958;17.726;2023-03-14T04:42:25;4.10;99.90
10431;DHT22;5262;59.958;17.726;2023-03-14T04:44:50;4.20;99.90
10431;DHT22;5262;59.958;17.726;2023-03-14T04:47:16;4.10;99.90
10431;DHT22;5262;59.958;17.726;2023-03-14T04:49:42;4.10;99.90
10431;DHT22;5262;59.958;17.726;2023-03-14T04:52:07;4.00;99.90
10431;DHT22;5262;59.958;17.726;2023-03-14T04:54:33;4.00;99.90
10431;DHT22;5262;59.958;17.726;2023-03-14T04:56:58;4.00;99.90
10431;DHT22;5262;59.958;17.726;2023-03-14T04:59:24;4.00;99.90
10431;DHT22;5262;59.958;17.726;2023-03-14T05:01:50;4.00;99.90
10431;DHT22;5262;59.958;17.726;2023-03-14T05:04:16;3.90;99.90
10431;DHT22;5262;59.958;17.726;2023-03-14T05:06:41;3.90;99.90
10431;DHT22;5262;59.958;17.726;2023-03-14T05:09:07;3.90;99.90
10431;DHT22;5262;59.958;17.726;2023-03-14T05:11:33;3.80;99.90
10431;DHT22;5262;59.958;17.726;2023-03-14T05:13:59;3.80;99.90
10431;DHT22;5262;59.958;17.726;2023-03-14T05:16:24;3.70;99.90
10431;DHT22;5262;59.958;17.726;2023-03-14T05:18:50;3.80;99.90
10431;DHT22;5262;59.958;17.726;2023-03-14T05:21:16;3.80;99.90
10431;DHT22;5262;59.958;17.726;2023-03-14T05:23:42;3.80;99.90
10431;DHT22;5262;59.958;17.726;2023-03-14T05:26:07;3.80;99.90
10431;DHT22;5262;59.958;17.726;2023-03-14T05:28:33;3.80;99.90
10431;DHT22;5262;59.958;17.726;2023-03-14T05:30:59;3.70;99.90
10431;DHT22;5262;59.958;17.726;2023-03-14T05:33:24;3.70;99.90
10431;DHT22;5262;59.958;17.726;2023-03-14T05:35:50;3.70;99.90
10431;DHT22;5262;59.958;17.726;2023-03-14T05:38:15;3.70;99.90
10431;DHT22;5262;59.958;17.726;2023-03-14T05:40:41;3.70;99.90
10431;DHT22;5262;59.958;17.726;2023-03-14T05:43:07;3.60;99.90
10431;DHT22;5262;59.958;17.726;2023-03-14T05:45:34;3.60;99.90
10431;DHT22;5262;59.958;17.726;2023-03-14T05:48:00;3.50;99.90
10431;DHT22;5262;59.958;17.726;2023-03-14T05:50:26;3.60;99.90
10431;DHT22;5262;59.958;17.726;2023-03-14T05:52:51;3.60;99.90
10431;DHT22;5262;59.958;17.726;2023-03-14T05:55:17;3.60;99.90
10431;DHT22;5262;59.958;17.726;2023-03-14T05:57:43;3.50;99.90
10431;DHT22;5262;59.958;17.726;2023-03-14T06:00:09;3.60;99.90
10431;DHT22;5262;59.958;17.726;2023-03-14T06:02:34;3.50;99.90
10431;DHT22;5262;59.958;17.726;2023-03-14T06:05:00;3.50;99.90
10431;DHT22;5262;59.958;17.726;2023-03-14T06:07:26;3.50;99.90
10431;DHT22;5262;59.958;17.726;2023-03-14T06:09:51;3.50;99.90
10431;DHT22;5262;59.958;17.726;2023-03-14T06:12:17;3.50;99.90
10431;DHT22;5262;59.958;17.726;2023-03-14T06:14:42;3.50;99.90
10431;DHT22;5262;59.958;17.726;2023-03-14T06:17:08;3.50;99.90
10431;DHT22;5262;59.958;17.726;2023-03-14T06:19:34;3.50;99.90
10431;DHT22;5262;59.958;17.726;2023-03-14T06:21:59;3.40;99.90
10431;DHT22;5262;59.958;17.726;2023-03-14T06:24:25;3.40;99.90
10431;DHT22;5262;59.958;17.726;2023-03-14T06:26:50;3.40;99.90
10431;DHT22;5262;59.958;17.726;2023-03-14T06:29:16;3.40;99.90
10431;DHT22;5262;59.958;17.726;2023-03-14T06:31:42;3.30;99.90
10431;DHT22;5262;59.958;17.726;2023-03-14T06:34:08;3.30;99.90
10431;DHT22;5262;59.958;17.726;2023-03-14T06:36:33;3.10;99.90
10431;DHT22;5262;59.958;17.726;2023-03-14T06:38:59;3.00;99.90
10431;DHT22;5262;59.958;17.726;2023-03-14T06:41:25;2.90;99.90
10431;DHT22;5262;59.958;17.726;2023-03-14T06:43:52;2.90;99.90
10431;DHT22;5262;59.958;17.726;2023-03-14T06:46:18;2.80;99.90
10431;DHT22;5262;59.958;17.726;2023-03-14T06:48:43;2.80;99.90
10431;DHT22;5262;59.958;17.726;2023-03-14T06:51:09;2.80;99.90
10431;DHT22;5262;59.958;17.726;2023-03-14T06:53:35;2.90;99.90
10431;DHT22;5262;59.958;17.726;2023-03-14T06:56:00;2.90;99.90
10431;DHT22;5262;59.958;17.726;2023-03-14T06:58:26;2.90;99.90
10431;DHT22;5262;59.958;17.726;2023-03-14T07:00:53;3.00;99.90
10431;DHT22;5262;59.958;17.726;2023-03-14T07:03:18;3.10;99.90
10431;DHT22;5262;59.958;17.726;2023-03-14T07:05:44;3.10;99.90
10431;DHT22;5262;59.958;17.726;2023-03-14T07:08:10;3.20;99.90
10431;DHT22;5262;59.958;17.726;2023-03-14T07:10:36;3.10;99.90
10431;DHT22;5262;59.958;17.726;2023-03-14T07:13:01;3.10;99.90
10431;DHT22;5262;59.958;17.726;2023-03-14T07:15:27;3.20;99.90
10431;DHT22;5262;59.958;17.726;2023-03-14T07:17:52;3.50;99.90
10431;DHT22;5262;59.958;17.726;2023-03-14T07:20:18;3.60;99.90
10431;DHT22;5262;59.958;17.726;2023-03-14T07:22:46;3.60;99.90
10431;DHT22;5262;59.958;17.726;2023-03-14T07:25:12;3.70;99.90
10431;DHT22;5262;59.958;17.726;2023-03-14T07:27:38;3.70;99.90
10431;DHT22;5262;59.958;17.726;2023-03-14T07:30:04;3.60;99.90
10431;DHT22;5262;59.958;17.726;2023-03-14T07:32:31;3.40;99.90
10431;DHT22;5262;59.958;17.726;2023-03-14T07:34:56;3.40;99.90
10431;DHT22;5262;59.958;17.726;2023-03-14T07:37:22;3.60;99.90
10431;DHT22;5262;59.958;17.726;2023-03-14T07:39:47;3.90;99.90
10431;DHT22;5262;59.958;17.726;2023-03-14T07:42:13;4.00;99.90
10431;DHT22;5262;59.958;17.726;2023-03-14T07:44:39;4.50;99.90
10431;DHT22;5262;59.958;17.726;2023-03-14T07:47:04;4.60;99.90
10431;DHT22;5262;59.958;17.726;2023-03-14T07:49:30;4.40;99.90
10431;DHT22;5262;59.958;17.726;2023-03-14T07:51:55;4.20;99.90
10431;DHT22;5262;59.958;17.726;2023-03-14T07:54:21;3.90;99.90
10431;DHT22;5262;59.958;17.726;2023-03-14T07:56:47;3.90;99.90
10431;DHT22;5262;59.958;17.726;2023-03-14T07:59:13;3.80;99.90
10431;DHT22;5262;59.958;17.726;2023-03-14T08:01:38;3.80;99.90
10431;DHT22;5262;59.958;17.726;2023-03-14T08:04:04;4.00;99.90
10431;DHT22;5262;59.958;17.726;2023-03-14T08:06:29;4.20;99.90
10431;DHT22;5262;59.958;17.726;2023-03-14T08:08:55;4.20;99.90
10431;DHT22;5262;59.958;17.726;2023-03-14T08:11:21;4.30;99.90
10431;DHT22;5262;59.958;17.726;2023-03-14T08:13:46;4.20;99.90
10431;DHT22;5262;59.958;17.726;2023-03-14T08:16:16;4.10;99.90
10431;DHT22;5262;59.958;17.726;2023-03-14T08:18:42;3.90;99.90
10431;DHT22;5262;59.958;17.726;2023-03-14T08:21:08;3.80;99.90
10431;DHT22;5262;59.958;17.726;2023-03-14T08:23:34;3.90;99.90
10431;DHT22;5262;59.958;17.726;2023-03-14T08:26:00;3.90;99.90
10431;DHT22;5262;59.958;17.726;2023-03-14T08:28:25;4.10;99.90
10431;DHT22;5262;59.958;17.726;2023-03-14T08:30:59;4.00;99.90
10431;DHT22;5262;59.958;17.726;2023-03-14T08:33:27;4.00;99.90
10431;DHT22;5262;59.958;17.726;2023-03-14T08:35:58;4.00;99.90
10431;DHT22;5262;59.958;17.726;2023-03-14T08:38:24;3.90;99.90
10431;DHT22;5262;59.958;17.726;2023-03-14T08:40:58;3.80;99.90
10431;DHT22;5262;59.958;17.726;2023-03-14T08:43:24;3.80;99.90
10431;DHT22;5262;59.958;17.726;2023-03-14T08:45:50;3.60;99.90
10431;DHT22;5262;59.958;17.726;2023-03-14T08:48:15;3.50;99.90
10431;DHT22;5262;59.958;17.726;2023-03-14T08:50:41;3.40;99.90
10431;DHT22;5262;59.958;17.726;2023-03-14T08:53:07;3.40;99.90
10431;DHT22;5262;59.958;17.726;2023-03-14T08:55:32;3.30;99.90
10431;DHT22;5262;59.958;17.726;2023-03-14T08:57:58;3.20;99.90
10431;DHT22;5262;59.958;17.726;2023-03-14T09:00:23;3.10;99.90
10431;DHT22;5262;59.958;17.726;2023-03-14T09:02:50;3.10;99.90
10431;DHT22;5262;59.958;17.726;2023-03-14T09:05:16;3.10;99.90
10431;DHT22;5262;59.958;17.726;2023-03-14T09:07:42;3.10;99.90
10431;DHT22;5262;59.958;17.726;2023-03-14T09:10:09;3.00;99.90
10431;DHT22;5262;59.958;17.726;2023-03-14T09:12:35;3.00;99.90
10431;DHT22;5262;59.958;17.726;2023-03-14T09:15:01;3.10;99.90
10431;DHT22;5262;59.958;17.726;2023-03-14T09:17:27;3.30;99.90
10431;DHT22;5262;59.958;17.726;2023-03-14T09:19:52;3.40;99.90
10431;DHT22;5262;59.958;17.726;2023-03-14T09:22:18;3.30;99.90
10431;DHT22;5262;59.958;17.726;2023-03-14T09:24:43;3.30;99.90
10431;DHT22;5262;59.958;17.726;2023-03-14T09:27:09;3.40;99.90
10431;DHT22;5262;59.958;17.726;2023-03-14T09:29:35;3.40;99.90
10431;DHT22;5262;59.958;17.726;2023-03-14T09:32:00;3.40;99.90
10431;DHT22;5262;59.958;17.726;2023-03-14T09:34:26;3.30;99.90
10431;DHT22;5262;59.958;17.726;2023-03-14T09:36:52;3.20;99.90
10431;DHT22;5262;59.958;17.726;2023-03-14T09:39:18;3.20;99.90
10431;DHT22;5262;59.958;17.726;2023-03-14T09:41:48;3.10;99.90
10431;DHT22;5262;59.958;17.726;2023-03-14T09:44:21;3.20;99.90
10431;DHT22;5262;59.958;17.726;2023-03-14T09:46:52;3.30;99.90
10431;DHT22;5262;59.958;17.726;2023-03-14T09:49:31;3.40;99.90
10431;DHT22;5262;59.958;17.726;2023-03-14T09:51:59;3.40;99.90
10431;DHT22;5262;59.958;17.726;2023-03-14T09:54:58;3.60;99.90
10431;DHT22;5262;59.958;17.726;2023-03-14T09:57:26;3.50;99.90
10431;DHT22;5262;59.958;17.726;2023-03-14T09:59:56;3.50;99.90
10431;DHT22;5262;59.958;17.726;2023-03-14T10:02:25;3.50;99.90
10431;DHT22;5262;59.958;17.726;2023-03-14T10:04:52;3.50;99.90
10431;DHT22;5262;59.958;17.726;2023-03-14T10:07:28;3.50;99.90
10431;DHT22;5262;59.958;17.726;2023-03-14T10:09:54;3.40;99.90
10431;DHT22;5262;59.958;17.726;2023-03-14T10:12:19;3.30;99.90
10431;DHT22;5262;59.958;17.726;2023-03-14T10:14:49;3.30;99.90
10431;DHT22;5262;59.958;17.726;2023-03-14T10:17:16;3.20;99.90
10431;DHT22;5262;59.958;17.726;2023-03-14T10:19:59;3.00;99.90
10431;DHT22;5262;59.958;17.726;2023-03-14T10:22:29;3.10;99.90
10431;DHT22;5262;59.958;17.726;2023-03-14T10:24:57;3.00;99.90
10431;DHT22;5262;59.958;17.726;2023-03-14T10:27:34;3.00;99.90
10431;DHT22;5262;59.958;17.726;2023-03-14T10:30:05;3.00;99.90
10431;DHT22;5262;59.958;17.726;2023-03-14T10:32:38;3.00;99.90
10431;DHT22;5262;59.958;17.726;2023-03-14T10:37:58;3.10;99.90
10431;DHT22;5262;59.958;17.726;2023-03-14T10:40:34;3.10;99.90
10431;DHT22;5262;59.958;17.726;2023-03-14T10:43:05;3.10;99.90
10431;DHT22;5262;59.958;17.726;2023-03-14T10:45:38;3.10;99.90
10431;DHT22;5262;59.958;17.726;2023-03-14T10:48:24;3.30;99.90
10431;DHT22;5262;59.958;17.726;2023-03-14T10:51:10;3.10;99.90
10431;DHT22;5262;59.958;17.726;2023-03-14T10:53:43;3.10;99.90
10431;DHT22;5262;59.958;17.726;2023-03-14T10:56:35;3.10;99.90
10431;DHT22;5262;59.958;17.726;2023-03-14T10:59:03;3.20;99.90
10431;DHT22;5262;59.958;17.726;2023-03-14T11:01:39;3.30;99.90
10431;DHT22;5262;59.958;17.726;2023-03-14T11:09:46;3.30;99.90
10431;DHT22;5262;59.958;17.726;2023-03-14T11:15:10;3.30;99.90
10431;DHT22;5262;59.958;17.726;2023-03-14T11:22:51;3.20;99.90
10431;DHT22;5262;59.958;17.726;2023-03-14T11:28:40;3.10;99.90
10431;DHT22;5262;59.958;17.726;2023-03-14T11:31:35;3.10;99.90
10431;DHT22;5262;59.958;17.726;2023-03-14T11:34:10;3.30;99.90
10431;DHT22;5262;59.958;17.726;2023-03-14T11:36:53;3.20;99.90
10431;DHT22;5262;59.958;17.726;2023-03-14T11:39:20;3.10;99.90
10431;DHT22;5262;59.958;17.726;2023-03-14T11:41:48;3.10;99.90
10431;DHT22;5262;59.958;17.726;2023-03-14T11:47:19;3.30;99.90
10431;DHT22;5262;59.958;17.726;2023-03-14T11:50:04;3.50;99.90
10431;DHT22;5262;59.958;17.726;2023-03-14T11:52:37;3.50;99.90
10431;DHT22;5262;59.958;17.726;2023-03-14T11:57:48;3.70;99.90
10431;DHT22;5262;59.958;17.726;2023-03-14T12:00:20;3.80;99.90
10431;DHT22;5262;59.958;17.726;2023-03-14T12:03:13;3.90;99.90
10431;DHT22;5262;59.958;17.726;2023-03-14T12:06:13;3.90;99.90
10431;DHT22;5262;59.958;17.726;2023-03-14T12:08:43;3.70;99.90
10431;DHT22;5262;59.958;17.726;2023-03-14T12:13:56;3.80;99.90
10431;DHT22;5262;59.958;17.726;2023-03-14T12:16:38;3.70;99.90
10431;DHT22;5262;59.958;17.726;2023-03-14T12:21:52;3.70;99.90
10431;DHT22;5262;59.958;17.726;2023-03-14T12:24:23;3.70;99.90
10431;DHT22;5262;59.958;17.726;2023-03-14T12:26:54;3.70;99.90
10431;DHT22;5262;59.958;17.726;2023-03-14T12:29:20;3.70;99.90
10431;DHT22;5262;59.958;17.726;2023-03-14T12:31:48;3.70;99.90
10431;DHT22;5262;59.958;17.726;2023-03-14T12:40:06;3.70;99.90
10431;DHT22;5262;59.958;17.726;2023-03-14T12:42:43;3.80;99.90
10431;DHT22;5262;59.958;17.726;2023-03-14T12:45:29;3.80;99.90
10431;DHT22;5262;59.958;17.726;2023-03-14T12:48:22;3.60;99.90
10431;DHT22;5262;59.958;17.726;2023-03-14T12:50:56;3.70;99.90
10431;DHT22;5262;59.958;17.726;2023-03-14T12:53:39;3.70;99.90
10431;DHT22;5262;59.958;17.726;2023-03-14T12:56:38;3.70;99.90
10431;DHT22;5262;59.958;17.726;2023-03-14T12:59:14;3.70;99.90
10431;DHT22;5262;59.958;17.726;2023-03-14T13:01:53;3.70;99.90
10431;DHT22;5262;59.958;17.726;2023-03-14T13:04:35;3.70;99.90
10431;DHT22;5262;59.958;17.726;2023-03-14T13:07:03;3.60;99.90
10431;DHT22;5262;59.958;17.726;2023-03-14T13:11:56;3.50;99.90
10431;DHT22;5262;59.958;17.726;2023-03-14T13:14:23;3.50;99.90
10431;DHT22;5262;59.958;17.726;2023-03-14T13:16:49;3.40;99.90
10431;DHT22;5262;59.958;17.726;2023-03-14T13:19:27;3.50;99.90
10431;DHT22;5262;59.958;17.726;2023-03-14T13:22:04;3.40;99.90
10431;DHT22;5262;59.958;17.726;2023-03-14T13:24:33;3.40;99.90
10431;DHT22;5262;59.958;17.726;2023-03-14T13:26:59;3.50;99.90
10431;DHT22;5262;59.958;17.726;2023-03-14T13:29:28;3.50;99.90
10431;DHT22;5262;59.958;17.726;2023-03-14T13:31:56;3.50;99.90
10431;DHT22;5262;59.958;17.726;2023-03-14T13:34:25;3.60;99.90
10431;DHT22;5262;59.958;17.726;2023-03-14T13:36:54;3.60;99.90
10431;DHT22;5262;59.958;17.726;2023-03-14T13:39:22;3.60;99.90
10431;DHT22;5262;59.958;17.726;2023-03-14T13:41:51;3.60;99.90
10431;DHT22;5262;59.958;17.726;2023-03-14T13:44:36;3.60;99.90
10431;DHT22;5262;59.958;17.726;2023-03-14T13:47:05;3.60;99.90
10431;DHT22;5262;59.958;17.726;2023-03-14T13:49:33;3.70;99.90
10431;DHT22;5262;59.958;17.726;2023-03-14T13:52:01;3.60;99.90
10431;DHT22;5262;59.958;17.726;2023-03-14T13:54:27;3.50;99.90
10431;DHT22;5262;59.958;17.726;2023-03-14T13:57:01;3.50;99.90
10431;DHT22;5262;59.958;17.726;2023-03-14T13:59:32;3.50;99.90
10431;DHT22;5262;59.958;17.726;2023-03-14T14:02:01;3.50;99.90
10431;DHT22;5262;59.958;17.726;2023-03-14T14:04:29;3.40;99.90
10431;DHT22;5262;59.958;17.726;2023-03-14T14:06:59;3.20;99.90
10431;DHT22;5262;59.958;17.726;2023-03-14T14:09:31;2.90;99.90
10431;DHT22;5262;59.958;17.726;2023-03-14T14:12:06;3.00;99.90
10431;DHT22;5262;59.958;17.726;2023-03-14T14:14:39;2.80;99.90
10431;DHT22;5262;59.958;17.726;2023-03-14T14:17:09;2.80;99.90
10431;DHT22;5262;59.958;17.726;2023-03-14T14:19:36;2.80;99.90
10431;DHT22;5262;59.958;17.726;2023-03-14T14:22:03;2.70;99.90
10431;DHT22;5262;59.958;17.726;2023-03-14T14:24:31;2.70;99.90
10431;DHT22;5262;59.958;17.726;2023-03-14T14:27:19;2.50;99.90
10431;DHT22;5262;59.958;17.726;2023-03-14T14:30:24;2.50;99.90
10431;DHT22;5262;59.958;17.726;2023-03-14T14:32:50;2.40;99.90
10431;DHT22;5262;59.958;17.726;2023-03-14T14:35:31;2.40;99.90
10431;DHT22;5262;59.958;17.726;2023-03-14T14:37:57;2.40;99.90
10431;DHT22;5262;59.958;17.726;2023-03-14T14:40:30;2.20;99.90
10431;DHT22;5262;59.958;17.726;2023-03-14T14:43:06;2.10;99.90
10431;DHT22;5262;59.958;17.726;2023-03-14T14:45:34;2.10;99.90
10431;DHT22;5262;59.958;17.726;2023-03-14T14:48:09;2.00;99.90
10431;DHT22;5262;59.958;17.726;2023-03-14T14:50:39;2.00;99.90
10431;DHT22;5262;59.958;17.726;2023-03-14T14:55:50;1.90;99.90
10431;DHT22;5262;59.958;17.726;2023-03-14T15:00:53;1.80;99.90
10431;DHT22;5262;59.958;17.726;2023-03-14T15:03:19;1.70;99.90
10431;DHT22;5262;59.958;17.726;2023-03-14T15:05:45;1.60;99.90
10431;DHT22;5262;59.958;17.726;2023-03-14T15:08:11;1.70;99.90
10431;DHT22;5262;59.958;17.726;2023-03-14T15:10:37;1.70;99.90
10431;DHT22;5262;59.958;17.726;2023-03-14T15:13:03;1.60;99.90
10431;DHT22;5262;59.958;17.726;2023-03-14T15:15:29;1.50;99.90
10431;DHT22;5262;59.958;17.726;2023-03-14T15:17:54;1.50;99.90
10431;DHT22;5262;59.958;17.726;2023-03-14T15:20:20;1.30;99.90
10431;DHT22;5262;59.958;17.726;2023-03-14T15:22:49;1.30;99.90
10431;DHT22;5262;59.958;17.726;2023-03-14T15:25:15;1.30;99.90
10431;DHT22;5262;59.958;17.726;2023-03-14T15:27:41;1.40;99.90
10431;DHT22;5262;59.958;17.726;2023-03-14T15:30:14;1.30;99.90
10431;DHT22;5262;59.958;17.726;2023-03-14T15:32:41;1.30;99.90
10431;DHT22;5262;59.958;17.726;2023-03-14T15:35:07;1.20;99.90
10431;DHT22;5262;59.958;17.726;2023-03-14T15:37:33;1.20;99.90
10431;DHT22;5262;59.958;17.726;2023-03-14T15:39:58;1.20;99.90
10431;DHT22;5262;59.958;17.726;2023-03-14T15:42:24;1.20;99.90
10431;DHT22;5262;59.958;17.726;2023-03-14T15:44:50;1.20;99.90
10431;DHT22;5262;59.958;17.726;2023-03-14T15:47:16;1.20;99.90
10431;DHT22;5262;59.958;17.726;2023-03-14T15:49:41;1.20;99.90
10431;DHT22;5262;59.958;17.726;2023-03-14T15:52:08;1.10;99.90
10431;DHT22;5262;59.958;17.726;2023-03-14T15:54:34;1.10;99.90
10431;DHT22;5262;59.958;17.726;2023-03-14T15:57:00;1.10;99.90
10431;DHT22;5262;59.958;17.726;2023-03-14T15:59:26;1.10;99.90
10431;DHT22;5262;59.958;17.726;2023-03-14T16:01:52;1.00;99.90
10431;DHT22;5262;59.958;17.726;2023-03-14T16:04:18;1.00;99.90
10431;DHT22;5262;59.958;17.726;2023-03-14T16:06:44;0.90;99.90
10431;DHT22;5262;59.958;17.726;2023-03-14T16:09:11;0.90;99.90
10431;DHT22;5262;59.958;17.726;2023-03-14T16:11:37;0.90;99.90
10431;DHT22;5262;59.958;17.726;2023-03-14T16:14:03;0.90;99.90
10431;DHT22;5262;59.958;17.726;2023-03-14T16:16:29;0.80;99.90
10431;DHT22;5262;59.958;17.726;2023-03-14T16:18:54;0.80;99.90
10431;DHT22;5262;59.958;17.726;2023-03-14T16:21:21;0.80;99.90
10431;DHT22;5262;59.958;17.726;2023-03-14T16:23:47;0.80;99.90
10431;DHT22;5262;59.958;17.726;2023-03-14T16:26:15;0.80;99.90
10431;DHT22;5262;59.958;17.726;2023-03-14T16:28:41;0.70;99.90
10431;DHT22;5262;59.958;17.726;2023-03-14T16:31:09;0.70;99.90
10431;DHT22;5262;59.958;17.726;2023-03-14T16:33:36;0.70;99.90
10431;DHT22;5262;59.958;17.726;2023-03-14T16:36:03;0.70;99.90
10431;DHT22;5262;59.958;17.726;2023-03-14T16:38:32;0.80;99.90
10431;DHT22;5262;59.958;17.726;2023-03-14T16:41:12;0.70;99.90